Time;durP1;ratioP1;P1;durP2;ratioP2;P2;SDS_P1;SDS_P2;PMS_P1;PMS_P2;Temp;Humidity;BMP_temperature;BMP_pressure;BME280_temperature;BME280_humidity;BME280_pressure;Samples;Min_cycle;Max_cycle;Signal;HPM_P1;HPM_P2
2022/05/18 00:00:48;;;;;;;0.40;0.40;;;18.00;99.90;;;;;;5062376;28;20237;-81
2022/05/18 00:03:16;;;;;;;0.43;0.43;;;18.00;99.90;;;;;;5056598;28;20170;-81
2022/05/18 00:05:42;;;;;;;0.50;0.50;;;18.00;99.90;;;;;;5042842;28;20219;-81
2022/05/18 00:08:08;;;;;;;0.40;0.40;;;17.90;99.90;;;;;;5059605;28;20576;-81
2022/05/18 00:10:36;;;;;;;0.30;0.30;;;17.80;99.90;;;;;;5061148;28;20244;-81
2022/05/18 00:13:02;;;;;;;0.43;0.43;;;17.80;99.90;;;;;;5041043;28;20585;-82
2022/05/18 00:15:29;;;;;;;2.10;0.50;;;17.80;99.90;;;;;;5043769;28;20291;-81
2022/05/18 00:17:55;;;;;;;0.97;0.50;;;17.80;99.90;;;;;;5040474;28;20187;-80
2022/05/18 00:20:20;;;;;;;0.60;0.60;;;17.80;99.90;;;;;;5042524;28;20189;-80
2022/05/18 00:22:52;;;;;;;0.20;0.20;;;17.80;99.90;;;;;;5056381;28;20215;-81
2022/05/18 00:25:20;;;;;;;0.37;0.37;;;17.80;99.90;;;;;;5042713;28;20670;-81
2022/05/18 00:27:46;;;;;;;0.60;0.60;;;17.80;99.90;;;;;;5040052;28;20680;-81
2022/05/18 00:30:14;;;;;;;0.47;0.37;;;17.80;99.90;;;;;;5058855;28;20181;-81
2022/05/18 00:32:39;;;;;;;0.60;0.60;;;17.70;99.90;;;;;;5073146;28;20217;-82
2022/05/18 00:35:06;;;;;;;0.27;0.27;;;17.60;99.90;;;;;;5041466;28;20302;-81
2022/05/18 00:37:31;;;;;;;0.40;0.40;;;17.50;99.90;;;;;;5062509;28;20177;-81
2022/05/18 00:39:57;;;;;;;0.63;0.57;;;17.40;99.90;;;;;;5061101;28;20178;-81
2022/05/18 00:42:25;;;;;;;0.90;0.60;;;17.40;99.90;;;;;;5039345;28;20264;-82
2022/05/18 00:44:51;;;;;;;0.57;0.57;;;17.30;99.90;;;;;;5059997;28;20185;-81
2022/05/18 00:47:17;;;;;;;0.30;0.30;;;17.40;99.90;;;;;;5042431;28;20220;-81
2022/05/18 00:49:47;;;;;;;0.53;0.47;;;17.40;99.90;;;;;;5063586;28;20234;-81
2022/05/18 00:52:15;;;;;;;0.57;0.40;;;17.50;99.90;;;;;;5060263;28;20174;-81
2022/05/18 00:54:42;;;;;;;1.60;0.50;;;17.50;99.90;;;;;;5059403;28;20214;-81
2022/05/18 00:57:13;;;;;;;0.50;0.50;;;17.60;99.90;;;;;;5061382;28;20201;-81
2022/05/18 00:59:45;;;;;;;0.53;0.53;;;17.50;99.90;;;;;;5043533;28;20174;-81
2022/05/18 01:02:11;;;;;;;0.63;0.57;;;17.50;99.90;;;;;;5038698;28;21100;-81
2022/05/18 01:04:40;;;;;;;0.40;0.40;;;17.60;99.90;;;;;;5040112;28;20255;-81
2022/05/18 01:07:13;;;;;;;0.30;0.30;;;17.50;99.90;;;;;;5043503;28;20231;-81
2022/05/18 01:09:44;;;;;;;0.43;0.43;;;17.50;99.90;;;;;;5040632;28;20205;-82
2022/05/18 01:12:13;;;;;;;1.80;0.40;;;17.60;99.90;;;;;;5056998;28;20327;-81
2022/05/18 01:14:44;;;;;;;0.93;0.40;;;17.60;99.90;;;;;;5073531;28;20217;-81
2022/05/18 01:17:17;;;;;;;0.60;0.60;;;17.50;99.90;;;;;;5058092;28;20199;-80
2022/05/18 01:19:54;;;;;;;0.60;0.60;;;17.50;99.90;;;;;;5056936;28;20262;-81
2022/05/18 01:22:39;;;;;;;0.37;0.33;;;17.40;99.90;;;;;;5039982;28;20181;-81
2022/05/18 01:25:13;;;;;;;0.27;0.27;;;17.40;99.90;;;;;;5058408;28;20571;-81
2022/05/18 01:27:38;;;;;;;0.87;0.87;;;17.40;99.90;;;;;;5042886;28;20188;-81
2022/05/18 01:30:05;;;;;;;0.30;0.30;;;17.40;99.90;;;;;;5041527;28;20181;-81
2022/05/18 01:32:44;;;;;;;0.60;0.43;;;17.40;99.90;;;;;;5072549;28;20320;-81
2022/05/18 01:35:11;;;;;;;1.30;0.60;;;17.40;99.90;;;;;;5039657;28;20243;-81
2022/05/18 01:37:37;;;;;;;0.60;0.60;;;17.40;99.90;;;;;;5060869;28;20181;-81
2022/05/18 01:40:10;;;;;;;0.30;0.30;;;17.40;99.90;;;;;;5039858;28;20186;-81
2022/05/18 01:42:45;;;;;;;0.30;0.30;;;17.50;99.90;;;;;;5040617;28;20181;-81
2022/05/18 01:45:11;;;;;;;0.30;0.30;;;17.60;99.90;;;;;;5039426;28;20426;-81
2022/05/18 01:47:38;;;;;;;0.70;0.70;;;17.60;99.90;;;;;;5041590;28;20281;-81
2022/05/18 01:50:09;;;;;;;0.63;0.47;;;17.60;99.90;;;;;;5040178;28;20185;-81
2022/05/18 01:52:36;;;;;;;2.53;0.60;;;17.50;99.90;;;;;;5039883;28;20272;-81
2022/05/18 01:55:03;;;;;;;0.40;0.40;;;17.50;99.90;;;;;;5038241;28;20255;-81
2022/05/18 01:57:29;;;;;;;0.20;0.20;;;17.30;99.90;;;;;;5057337;28;20721;-81
2022/05/18 01:59:54;;;;;;;0.53;0.40;;;17.30;99.90;;;;;;5041645;28;20188;-81
2022/05/18 02:02:22;;;;;;;0.60;0.60;;;17.30;99.90;;;;;;5057763;28;20190;-81
2022/05/18 02:04:48;;;;;;;0.33;0.33;;;17.40;99.90;;;;;;5057814;28;20189;-81
2022/05/18 02:07:13;;;;;;;0.23;0.23;;;17.40;99.90;;;;;;5039435;28;20246;-81
2022/05/18 02:09:40;;;;;;;0.77;0.40;;;17.50;99.90;;;;;;5058860;28;20205;-81
2022/05/18 02:12:08;;;;;;;0.60;0.60;;;17.50;99.90;;;;;;5040202;28;20196;-81
2022/05/18 02:14:33;;;;;;;0.50;0.50;;;17.50;99.90;;;;;;5040086;28;20265;-81
2022/05/18 02:16:59;;;;;;;0.50;0.50;;;17.40;99.90;;;;;;5056829;28;21076;-81
2022/05/18 02:19:25;;;;;;;0.20;0.20;;;17.40;99.90;;;;;;5040016;28;20175;-81
2022/05/18 02:21:51;;;;;;;0.30;0.30;;;17.30;99.90;;;;;;5055399;28;20636;-81
2022/05/18 02:24:17;;;;;;;0.93;0.63;;;17.30;99.90;;;;;;5060637;28;20217;-81
2022/05/18 02:26:42;;;;;;;0.60;0.50;;;17.30;99.90;;;;;;5058938;28;20215;-81
2022/05/18 02:29:08;;;;;;;1.53;1.43;;;17.30;99.90;;;;;;5040427;28;20177;-81
2022/05/18 02:31:34;;;;;;;0.67;0.50;;;17.30;99.90;;;;;;5037887;28;20658;-81
2022/05/18 02:34:00;;;;;;;0.30;0.30;;;17.20;99.90;;;;;;5058004;28;20195;-81
2022/05/18 02:36:26;;;;;;;0.40;0.40;;;17.30;99.90;;;;;;5041506;28;20193;-81
2022/05/18 02:38:52;;;;;;;0.33;0.33;;;17.30;99.90;;;;;;5042075;28;21190;-81
2022/05/18 02:41:17;;;;;;;1.20;0.37;;;17.30;99.90;;;;;;5057555;28;20212;-81
2022/05/18 02:43:43;;;;;;;0.27;0.27;;;17.40;99.90;;;;;;5046362;28;20177;-81
2022/05/18 02:46:11;;;;;;;0.30;0.30;;;17.40;99.90;;;;;;5061622;28;20222;-81
2022/05/18 02:48:37;;;;;;;0.40;0.40;;;17.50;99.90;;;;;;5078365;28;20295;-81
2022/05/18 02:51:04;;;;;;;1.20;0.60;;;17.50;99.90;;;;;;5043506;28;20642;-81
2022/05/18 02:53:30;;;;;;;0.40;0.40;;;17.30;99.90;;;;;;5077724;28;20276;-81
2022/05/18 02:56:08;;;;;;;1.70;1.00;;;17.10;99.90;;;;;;5045135;28;20308;-81
2022/05/18 02:58:38;;;;;;;0.33;0.33;;;17.10;99.90;;;;;;5062627;28;20177;-81
2022/05/18 03:01:09;;;;;;;0.47;0.37;;;17.20;99.90;;;;;;5061966;28;20190;-81
2022/05/18 03:03:36;;;;;;;0.50;0.50;;;17.30;99.90;;;;;;5063943;28;20208;-81
2022/05/18 03:06:03;;;;;;;0.50;0.50;;;17.30;99.90;;;;;;5059815;28;20201;-81
2022/05/18 03:08:33;;;;;;;0.83;0.30;;;17.40;99.90;;;;;;5058472;28;20196;-81
2022/05/18 03:10:59;;;;;;;0.93;0.60;;;17.50;99.90;;;;;;5041192;28;20190;-81
2022/05/18 03:13:24;;;;;;;0.80;0.80;;;17.50;99.90;;;;;;5042583;28;20712;-81
2022/05/18 03:15:50;;;;;;;0.37;0.37;;;17.50;99.90;;;;;;5060694;28;20212;-81
2022/05/18 03:18:16;;;;;;;0.20;0.20;;;17.40;99.90;;;;;;5042291;28;20564;-81
2022/05/18 03:23:36;;;;;;;0.20;0.20;;;17.10;99.90;;;;;;5062748;28;20313;-81
2022/05/18 03:26:08;;;;;;;0.40;0.40;;;17.10;99.90;;;;;;5061010;28;20203;-81
2022/05/18 03:28:33;;;;;;;0.30;0.30;;;17.20;99.90;;;;;;5044544;28;20659;-81
2022/05/18 03:30:59;;;;;;;0.33;0.33;;;17.20;99.90;;;;;;5042908;28;20239;-81
2022/05/18 03:33:25;;;;;;;0.97;0.97;;;17.20;99.90;;;;;;5060489;28;20643;-81
2022/05/18 03:35:52;;;;;;;0.73;0.73;;;17.20;99.90;;;;;;5040709;28;20210;-81
2022/05/18 03:38:19;;;;;;;0.63;0.40;;;17.10;99.90;;;;;;5076012;28;20181;-81
2022/05/18 03:40:45;;;;;;;0.77;0.50;;;17.20;99.90;;;;;;5062231;28;20193;-81
2022/05/18 03:43:11;;;;;;;0.20;0.20;;;17.20;99.90;;;;;;5060464;28;20180;-81
2022/05/18 03:45:37;;;;;;;0.27;0.27;;;17.30;99.90;;;;;;5062415;28;20210;-81
2022/05/18 03:48:04;;;;;;;0.30;0.30;;;17.30;99.90;;;;;;5059116;28;20181;-81
2022/05/18 03:50:30;;;;;;;0.43;0.43;;;17.30;99.90;;;;;;5060073;28;20650;-81
2022/05/18 03:52:57;;;;;;;0.60;0.60;;;17.30;99.90;;;;;;5042396;28;20192;-81
2022/05/18 03:55:24;;;;;;;0.30;0.30;;;17.30;99.90;;;;;;5061246;28;20247;-81
2022/05/18 03:57:49;;;;;;;0.27;0.27;;;17.10;99.90;;;;;;5044997;28;20260;-81
2022/05/18 04:00:15;;;;;;;1.03;0.50;;;16.90;99.90;;;;;;5043189;28;20212;-81
2022/05/18 04:02:42;;;;;;;0.30;0.30;;;16.70;99.90;;;;;;5063400;28;20716;-81
2022/05/18 04:05:09;;;;;;;0.80;0.80;;;16.80;99.90;;;;;;5063049;28;20202;-81
2022/05/18 04:07:35;;;;;;;0.43;0.40;;;16.70;99.90;;;;;;5043629;28;20209;-81
2022/05/18 04:10:01;;;;;;;3.90;0.50;;;16.70;99.90;;;;;;5062486;28;20681;-81
2022/05/18 04:12:27;;;;;;;0.80;0.50;;;16.80;99.90;;;;;;5056697;28;20225;-81
2022/05/18 04:14:54;;;;;;;3.03;0.43;;;16.80;99.90;;;;;;5055410;28;20220;-81
2022/05/18 04:17:24;;;;;;;0.83;0.40;;;16.70;99.90;;;;;;5042962;28;20177;-81
2022/05/18 04:19:49;;;;;;;0.53;0.47;;;16.90;99.90;;;;;;5053460;28;20181;-81
2022/05/18 04:22:15;;;;;;;0.53;0.53;;;17.30;99.90;;;;;;5039874;28;20757;-81
2022/05/18 04:24:41;;;;;;;5.20;1.33;;;17.60;99.90;;;;;;5039003;28;20282;-81
2022/05/18 04:27:06;;;;;;;0.47;0.40;;;17.90;99.90;;;;;;5039397;28;21074;-81
2022/05/18 04:29:32;;;;;;;0.63;0.63;;;18.10;99.90;;;;;;5057199;28;20773;-81
2022/05/18 04:31:58;;;;;;;0.40;0.40;;;18.20;99.90;;;;;;5041281;28;20182;-81
2022/05/18 04:34:25;;;;;;;0.40;0.33;;;17.90;99.90;;;;;;5042564;28;20267;-81
2022/05/18 04:36:51;;;;;;;0.50;0.50;;;17.80;99.90;;;;;;5058548;28;20258;-81
2022/05/18 04:39:17;;;;;;;0.47;0.40;;;17.70;99.90;;;;;;5042008;28;20742;-81
2022/05/18 04:41:42;;;;;;;1.13;1.03;;;17.60;99.90;;;;;;5042245;28;20189;-81
2022/05/18 04:44:08;;;;;;;0.77;0.67;;;17.40;99.90;;;;;;5039727;28;20664;-81
2022/05/18 04:46:34;;;;;;;0.63;0.50;;;17.20;99.90;;;;;;5041353;28;20201;-81
2022/05/18 04:49:00;;;;;;;0.70;0.70;;;17.10;99.90;;;;;;5059021;28;20200;-81
2022/05/18 04:51:26;;;;;;;0.67;0.67;;;17.10;99.90;;;;;;5061555;28;20197;-81
2022/05/18 04:53:51;;;;;;;0.43;0.43;;;17.10;99.90;;;;;;5061125;28;20613;-81
2022/05/18 04:56:17;;;;;;;1.03;0.90;;;17.30;99.90;;;;;;5057380;28;20212;-81
2022/05/18 04:58:42;;;;;;;10.07;0.83;;;17.30;99.90;;;;;;5041168;28;20188;-81
2022/05/18 05:01:09;;;;;;;0.30;0.30;;;17.30;99.90;;;;;;5040906;28;20292;-81
2022/05/18 05:03:36;;;;;;;0.60;0.60;;;17.30;99.90;;;;;;5059215;28;20182;-81
2022/05/18 05:06:04;;;;;;;4.70;2.77;;;17.40;99.90;;;;;;5037906;28;20204;-81
2022/05/18 05:08:30;;;;;;;1.37;0.90;;;17.50;99.90;;;;;;5039655;28;20250;-81
2022/05/18 05:10:56;;;;;;;0.60;0.60;;;17.60;99.90;;;;;;5041390;28;20220;-81
2022/05/18 05:13:22;;;;;;;0.67;0.67;;;17.90;99.90;;;;;;5058413;28;20207;-81
2022/05/18 05:15:51;;;;;;;1.10;0.77;;;17.90;99.90;;;;;;5041080;28;20213;-81
2022/05/18 05:18:17;;;;;;;0.47;0.47;;;17.90;99.90;;;;;;5060361;28;20177;-81
2022/05/18 05:20:43;;;;;;;0.40;0.40;;;17.90;99.90;;;;;;5040012;28;20188;-81
2022/05/18 05:23:08;;;;;;;0.70;0.70;;;18.00;99.90;;;;;;5057137;28;20185;-81
2022/05/18 05:25:34;;;;;;;0.67;0.67;;;18.20;99.90;;;;;;5039385;28;20238;-81
2022/05/18 05:28:00;;;;;;;1.40;1.00;;;18.50;99.90;;;;;;5042958;28;20688;-81
2022/05/18 05:30:27;;;;;;;0.30;0.30;;;18.60;99.90;;;;;;5036541;28;20841;-79
2022/05/18 05:32:53;;;;;;;0.30;0.30;;;18.70;99.90;;;;;;5051656;28;20185;-80
2022/05/18 05:35:19;;;;;;;0.60;0.60;;;19.10;99.90;;;;;;5035279;28;20283;-79
2022/05/18 05:37:44;;;;;;;0.50;0.50;;;19.40;99.90;;;;;;5034168;28;20215;-79
2022/05/18 05:40:10;;;;;;;0.40;0.40;;;19.60;99.90;;;;;;5052629;28;20181;-82
2022/05/18 05:42:37;;;;;;;0.43;0.40;;;19.50;99.90;;;;;;5058410;28;20184;-82
2022/05/18 05:45:03;;;;;;;0.80;0.80;;;19.60;99.90;;;;;;5039798;28;20189;-81
2022/05/18 05:47:29;;;;;;;0.50;0.50;;;19.60;99.90;;;;;;5038558;28;20578;-82
2022/05/18 05:49:54;;;;;;;0.40;0.40;;;19.90;99.90;;;;;;5039103;28;20189;-82
2022/05/18 05:52:20;;;;;;;0.43;0.43;;;19.90;99.90;;;;;;5056689;28;20207;-81
2022/05/18 05:54:45;;;;;;;0.50;0.50;;;20.10;99.90;;;;;;5038917;28;20212;-82
2022/05/18 05:57:11;;;;;;;0.60;0.43;;;20.30;99.90;;;;;;5037220;28;20262;-82
2022/05/18 05:59:37;;;;;;;0.47;0.47;;;20.60;99.90;;;;;;5029712;28;20204;-82
2022/05/18 06:02:07;;;;;;;0.50;0.50;;;20.90;99.90;;;;;;5037422;28;20173;-83
2022/05/18 06:04:34;;;;;;;0.23;0.23;;;21.10;99.90;;;;;;5058315;28;20185;-82
2022/05/18 06:07:00;;;;;;;0.97;0.83;;;21.20;99.90;;;;;;5037241;28;20205;-83
2022/05/18 06:09:26;;;;;;;0.33;0.33;;;21.40;99.90;;;;;;5053035;28;20205;-80
2022/05/18 06:11:52;;;;;;;2.57;0.60;;;21.40;99.90;;;;;;5072081;28;20186;-80
2022/05/18 06:14:18;;;;;;;0.53;0.53;;;21.50;99.90;;;;;;5036577;28;20300;-80
2022/05/18 06:16:46;;;;;;;0.90;0.90;;;21.70;99.90;;;;;;5059288;28;20215;-80
2022/05/18 06:19:13;;;;;;;0.50;0.50;;;21.70;99.90;;;;;;5061378;28;20190;-81
2022/05/18 06:21:39;;;;;;;1.10;0.40;;;21.30;99.90;;;;;;5042520;28;20185;-81
2022/05/18 06:24:05;;;;;;;0.67;0.67;;;21.40;99.90;;;;;;5047289;28;20653;-81
2022/05/18 06:26:31;;;;;;;3.07;0.67;;;21.80;99.90;;;;;;5047303;28;20294;-81
2022/05/18 06:28:56;;;;;;;1.53;1.30;;;21.40;99.90;;;;;;5049135;28;20649;-81
2022/05/18 06:31:22;;;;;;;0.60;0.60;;;21.50;99.90;;;;;;5051640;28;20603;-81
2022/05/18 06:33:48;;;;;;;0.90;0.60;;;21.50;99.90;;;;;;5063840;28;20268;-81
2022/05/18 06:36:14;;;;;;;0.57;0.57;;;21.70;99.90;;;;;;5048004;28;20274;-81
2022/05/18 06:38:40;;;;;;;1.07;0.73;;;21.90;99.90;;;;;;5050668;28;20189;-81
2022/05/18 06:41:24;;;;;;;0.63;0.63;;;21.90;99.90;;;;;;5050828;28;20181;-81
2022/05/18 06:43:54;;;;;;;1.70;0.50;;;21.80;99.90;;;;;;5047642;28;20193;-81
2022/05/18 06:46:21;;;;;;;0.30;0.30;;;22.20;99.90;;;;;;5067664;28;20224;-81
2022/05/18 06:48:48;;;;;;;0.40;0.40;;;22.60;99.90;;;;;;5064823;28;20185;-81
2022/05/18 06:51:20;;;;;;;1.70;0.93;;;22.80;99.90;;;;;;5047876;28;20184;-81
2022/05/18 06:53:47;;;;;;;0.87;0.67;;;22.40;99.90;;;;;;5047177;28;20185;-81
2022/05/18 06:56:14;;;;;;;0.77;0.77;;;22.80;99.90;;;;;;5049384;28;20761;-81
2022/05/18 06:58:39;;;;;;;0.50;0.50;;;23.10;99.90;;;;;;5049247;28;20173;-81
2022/05/18 07:01:07;;;;;;;0.50;0.50;;;23.30;99.90;;;;;;5047634;28;20199;-81
2022/05/18 07:03:33;;;;;;;0.50;0.50;;;23.40;99.90;;;;;;5048724;28;20235;-81
2022/05/18 07:05:58;;;;;;;0.50;0.50;;;23.60;99.90;;;;;;5065946;28;20681;-81
2022/05/18 07:08:24;;;;;;;0.40;0.40;;;23.80;99.90;;;;;;5077714;28;20251;-81
2022/05/18 07:10:50;;;;;;;0.30;0.30;;;23.90;99.90;;;;;;5064881;28;20191;-81
2022/05/18 07:13:17;;;;;;;0.73;0.53;;;23.90;99.90;;;;;;5063663;28;20181;-81
2022/05/18 07:15:44;;;;;;;0.97;0.80;;;23.20;99.90;;;;;;5064737;28;20288;-81
2022/05/18 07:18:10;;;;;;;0.67;0.67;;;22.90;99.90;;;;;;5038074;28;20713;-82
2022/05/18 07:20:35;;;;;;;0.20;0.20;;;23.00;99.90;;;;;;5059521;28;20267;-81
2022/05/18 07:23:01;;;;;;;0.63;0.63;;;23.50;99.90;;;;;;5040720;28;20182;-81
2022/05/18 07:25:26;;;;;;;0.33;0.33;;;24.00;99.90;;;;;;5061294;28;21139;-81
2022/05/18 07:27:52;;;;;;;0.63;0.63;;;24.20;99.90;;;;;;5058237;28;20193;-81
2022/05/18 07:30:18;;;;;;;0.73;0.73;;;24.40;99.90;;;;;;5054671;28;21068;-83
2022/05/18 07:32:43;;;;;;;1.60;1.50;;;24.40;99.90;;;;;;5054711;28;20188;-84
2022/05/18 07:35:09;;;;;;;0.70;0.63;;;24.60;99.90;;;;;;5055405;28;20890;-84
2022/05/18 07:37:35;;;;;;;0.70;0.70;;;24.80;99.90;;;;;;5036615;28;20195;-84
2022/05/18 07:40:02;;;;;;;0.67;0.67;;;24.90;99.90;;;;;;5055136;28;20705;-84
2022/05/18 07:42:28;;;;;;;0.50;0.50;;;25.20;99.90;;;;;;5055386;28;20184;-85
2022/05/18 07:44:53;;;;;;;2.23;0.70;;;25.30;99.90;;;;;;5053585;28;20700;-80
2022/05/18 07:47:26;;;;;;;0.73;0.73;;;25.40;99.90;;;;;;5042080;28;20302;-80
2022/05/18 07:49:52;;;;;;;1.00;0.93;;;25.30;99.90;;;;;;5036935;28;20178;-80
2022/05/18 07:52:17;;;;;;;0.50;0.50;;;24.60;99.90;;;;;;5040017;28;20745;-80
2022/05/18 07:54:44;;;;;;;0.60;0.60;;;24.50;99.90;;;;;;5034137;28;20260;-79
2022/05/18 07:57:10;;;;;;;0.40;0.40;;;24.90;99.90;;;;;;5038550;28;20204;-81
2022/05/18 07:59:36;;;;;;;0.60;0.50;;;25.00;99.90;;;;;;5057577;28;20239;-81
2022/05/18 08:02:02;;;;;;;0.40;0.40;;;25.20;99.90;;;;;;5053953;28;20180;-80
2022/05/18 08:04:27;;;;;;;0.30;0.30;;;25.50;99.90;;;;;;5050747;28;20205;-80
2022/05/18 08:06:53;;;;;;;0.50;0.50;;;25.70;99.90;;;;;;5037297;28;20205;-80
2022/05/18 08:09:22;;;;;;;0.40;0.40;;;25.70;99.90;;;;;;5053588;28;20220;-81
2022/05/18 08:17:18;;;;;;;0.60;0.60;;;24.80;99.90;;;;;;5054664;28;20308;-80
2022/05/18 08:19:44;;;;;;;0.87;0.63;;;24.90;99.90;;;;;;5034137;28;20201;-80
2022/05/18 08:22:10;;;;;;;1.47;1.37;;;25.00;99.90;;;;;;5055100;28;20177;-80
2022/05/18 08:24:39;;;;;;;0.63;0.63;;;24.70;99.90;;;;;;5038279;28;20185;-80
2022/05/18 08:27:06;;;;;;;0.63;0.63;;;25.00;99.90;;;;;;5036885;28;20299;-80
2022/05/18 08:29:31;;;;;;;1.07;0.67;;;25.10;99.90;;;;;;5035741;28;20336;-80
2022/05/18 08:31:58;;;;;;;0.50;0.50;;;24.90;99.90;;;;;;5056717;28;20268;-80
2022/05/18 08:34:23;;;;;;;1.73;0.97;;;25.00;99.90;;;;;;5057268;28;20201;-80
2022/05/18 08:36:49;;;;;;;0.50;0.50;;;24.90;99.90;;;;;;5057211;28;20209;-80
2022/05/18 08:39:15;;;;;;;0.93;0.83;;;24.70;99.90;;;;;;5057533;28;20264;-80
2022/05/18 08:41:45;;;;;;;0.43;0.43;;;25.10;99.90;;;;;;5057248;28;20170;-80
2022/05/18 08:44:25;;;;;;;0.73;0.73;;;25.50;99.90;;;;;;5056238;28;20178;-80
2022/05/18 08:46:50;;;;;;;0.43;0.43;;;26.00;99.90;;;;;;5038225;28;20209;-80
2022/05/18 08:49:57;;;;;;;0.40;0.40;;;26.20;99.90;;;;;;5055718;28;20182;-80
2022/05/18 08:52:50;;;;;;;0.80;0.80;;;25.50;99.90;;;;;;5054756;28;20190;-80
2022/05/18 08:55:25;;;;;;;0.70;0.70;;;25.60;99.90;;;;;;5038423;28;20220;-80
2022/05/18 08:57:53;;;;;;;0.60;0.60;;;25.60;99.90;;;;;;5055117;28;20188;-80
2022/05/18 09:00:25;;;;;;;0.90;0.77;;;25.70;99.90;;;;;;5054681;28;20216;-80
2022/05/18 09:03:02;;;;;;;0.70;0.70;;;25.90;99.90;;;;;;5037175;28;20264;-80
2022/05/18 09:05:35;;;;;;;0.70;0.70;;;25.80;99.90;;;;;;5056174;28;20666;-80
2022/05/18 09:08:21;;;;;;;0.93;0.73;;;26.10;99.90;;;;;;5037344;28;20193;-80
2022/05/18 09:10:52;;;;;;;0.50;0.50;;;26.20;99.90;;;;;;5055658;28;20193;-80
2022/05/18 09:13:20;;;;;;;0.50;0.50;;;26.40;99.90;;;;;;5052777;28;20185;-80
2022/05/18 09:16:13;;;;;;;0.70;0.70;;;26.50;99.90;;;;;;5055677;28;20303;-80
2022/05/18 09:18:47;;;;;;;0.63;0.40;;;26.50;99.90;;;;;;5053866;28;20181;-80
2022/05/18 09:21:29;;;;;;;0.67;0.40;;;27.10;99.90;;;;;;5055401;28;20185;-80
2022/05/18 09:24:19;;;;;;;0.35;0.35;;;27.50;99.90;;;;;;5054950;28;20227;-80
2022/05/18 09:27:11;;;;;;;0.40;0.40;;;27.50;99.90;;;;;;5052702;28;20337;-80
2022/05/18 09:30:22;;;;;;;0.90;0.70;;;27.20;99.90;;;;;;5054369;28;20176;-80
2022/05/18 09:33:06;;;;;;;0.67;0.67;;;27.30;99.90;;;;;;5054753;28;20555;-80
2022/05/18 09:35:39;;;;;;;0.85;0.77;;;27.40;99.90;;;;;;5055189;28;20548;-80
2022/05/18 09:38:13;;;;;;;1.15;1.00;;;27.60;99.90;;;;;;5052324;28;20309;-80
2022/05/18 09:40:45;;;;;;;0.40;0.40;;;27.90;99.90;;;;;;5053914;28;20264;-80
2022/05/18 09:43:26;;;;;;;0.80;0.80;;;27.80;99.90;;;;;;5055465;28;20173;-80
2022/05/18 09:45:55;;;;;;;0.93;0.50;;;27.70;99.90;;;;;;5036917;28;20555;-80
2022/05/18 09:48:34;;;;;;;0.57;0.57;;;27.60;99.90;;;;;;5054414;28;20274;-80
2022/05/18 09:51:02;;;;;;;1.10;0.57;;;27.60;99.90;;;;;;5055441;28;20271;-80
2022/05/18 09:53:28;;;;;;;0.77;0.68;;;27.50;99.90;;;;;;5033354;28;20647;-80
2022/05/18 09:55:54;;;;;;;0.55;0.55;;;28.00;99.90;;;;;;5054868;28;20209;-80
2022/05/18 09:58:38;;;;;;;0.63;0.63;;;28.20;99.90;;;;;;5054457;28;20197;-80
2022/05/18 10:09:43;;;;;;;1.48;0.60;;;29.00;99.90;;;;;;5054562;28;20293;-80
2022/05/18 10:12:43;;;;;;;1.40;0.73;;;28.80;99.90;;;;;;5054247;28;20667;-80
2022/05/18 10:15:30;;;;;;;0.52;0.52;;;28.50;99.90;;;;;;5055238;28;20190;-80
2022/05/18 10:18:00;;;;;;;0.43;0.43;;;28.50;99.90;;;;;;5037724;28;20177;-80
2022/05/18 10:20:29;;;;;;;1.27;0.95;;;28.10;99.90;;;;;;5055090;28;20265;-80
2022/05/18 10:22:57;;;;;;;0.65;0.65;;;28.40;99.90;;;;;;5033693;28;20216;-80
2022/05/18 10:25:39;;;;;;;2.00;1.80;;;28.80;99.90;;;;;;5034878;28;20315;-80
2022/05/18 10:28:27;;;;;;;0.52;0.52;;;29.10;99.90;;;;;;5053570;28;20180;-80
2022/05/18 10:31:06;;;;;;;0.40;0.38;;;29.20;99.90;;;;;;5053032;28;20665;-80
2022/05/18 10:33:35;;;;;;;0.90;0.82;;;29.30;99.90;;;;;;5053424;28;20169;-80
2022/05/18 10:36:22;;;;;;;0.50;0.50;;;29.50;99.90;;;;;;5054264;28;20202;-80
2022/05/18 10:38:57;;;;;;;0.70;0.50;;;29.60;99.90;;;;;;5035317;28;20282;-80
2022/05/18 10:41:28;;;;;;;0.52;0.52;;;29.70;99.90;;;;;;5054357;28;20189;-80
2022/05/18 10:44:12;;;;;;;0.73;0.57;;;29.60;99.90;;;;;;5052280;28;20177;-80
2022/05/18 10:46:46;;;;;;;0.57;0.57;;;29.80;99.90;;;;;;5052690;28;20201;-80
2022/05/18 10:49:36;;;;;;;0.75;0.63;;;29.80;99.90;;;;;;5053164;28;20174;-80
2022/05/18 10:52:17;;;;;;;1.23;1.13;;;29.90;99.90;;;;;;5054782;28;20170;-80
2022/05/18 10:54:58;;;;;;;0.32;0.32;;;29.90;99.90;;;;;;5054522;28;20196;-80
2022/05/18 10:57:36;;;;;;;0.55;0.55;;;30.10;99.90;;;;;;5070733;28;20184;-80
2022/05/18 11:00:15;;;;;;;1.98;0.93;;;29.70;99.90;;;;;;5036671;28;20186;-80
2022/05/18 11:02:59;;;;;;;0.93;0.85;;;29.90;99.90;;;;;;5053390;28;20165;-80
2022/05/18 11:05:33;;;;;;;0.65;0.60;;;29.90;99.90;;;;;;5040870;28;20289;-80
2022/05/18 11:07:58;;;;;;;0.50;0.50;;;30.20;99.90;;;;;;5055910;28;20193;-80
2022/05/18 11:10:36;;;;;;;0.77;0.50;;;30.30;99.90;;;;;;5038631;28;20228;-80
2022/05/18 11:13:10;;;;;;;1.02;0.57;;;29.80;99.90;;;;;;5039483;28;20282;-80
2022/05/18 11:15:42;;;;;;;0.88;0.88;;;30.10;99.90;;;;;;5057632;28;20205;-80
2022/05/18 11:18:26;;;;;;;0.40;0.40;;;30.20;99.90;;;;;;5057792;28;20273;-80
2022/05/18 11:21:21;;;;;;;0.30;0.30;;;30.50;99.90;;;;;;5056089;28;20173;-80
2022/05/18 11:24:09;;;;;;;0.60;0.57;;;30.50;99.90;;;;;;5057498;28;20185;-80
2022/05/18 11:26:50;;;;;;;0.50;0.50;;;30.50;99.90;;;;;;5055449;28;20614;-80
2022/05/18 11:29:40;;;;;;;0.47;0.45;;;30.50;99.90;;;;;;5054926;28;20176;-80
2022/05/18 11:32:16;;;;;;;0.32;0.32;;;30.00;99.90;;;;;;5038710;28;20201;-79
2022/05/18 11:34:47;;;;;;;1.88;1.77;;;30.20;99.90;;;;;;5041065;28;20609;-80
2022/05/18 11:37:51;;;;;;;2.25;0.98;;;30.20;99.90;;;;;;5055182;28;20682;-80
2022/05/18 11:40:37;;;;;;;0.73;0.60;;;29.50;99.90;;;;;;5049113;28;20185;-80
2022/05/18 11:43:35;;;;;;;1.15;1.15;;;30.00;99.90;;;;;;5056639;28;20207;-80
2022/05/18 11:46:18;;;;;;;0.55;0.32;;;30.10;99.90;;;;;;5055360;28;20294;-80
2022/05/18 11:49:12;;;;;;;0.40;0.40;;;30.50;99.90;;;;;;5039597;28;20607;-81
2022/05/18 11:52:06;;;;;;;0.73;0.73;;;30.60;99.90;;;;;;5055823;28;20181;-80
2022/05/18 11:54:52;;;;;;;0.65;0.65;;;30.60;99.90;;;;;;5057168;28;20251;-81
2022/05/18 11:57:41;;;;;;;0.45;0.45;;;30.50;99.90;;;;;;5051239;28;20176;-81
2022/05/18 12:00:52;;;;;;;0.30;0.30;;;30.50;99.90;;;;;;5054621;28;20195;-80
2022/05/18 12:03:35;;;;;;;0.77;0.77;;;30.40;99.90;;;;;;5054122;28;20182;-80
2022/05/18 12:06:10;;;;;;;0.55;0.55;;;30.00;99.90;;;;;;5056848;28;20287;-80
2022/05/18 12:09:13;;;;;;;0.30;0.30;;;29.90;99.90;;;;;;5037078;28;20684;-82
2022/05/18 12:11:51;;;;;;;0.95;0.95;;;30.20;99.90;;;;;;5072011;28;20181;-80
2022/05/18 12:14:39;;;;;;;1.10;0.90;;;30.50;99.90;;;;;;5037438;28;20205;-80
2022/05/18 12:17:30;;;;;;;1.20;0.35;;;30.50;99.90;;;;;;5056717;28;20205;-79
2022/05/18 12:20:01;;;;;;;0.40;0.40;;;30.70;99.90;;;;;;5054555;28;20197;-80
2022/05/18 12:22:48;;;;;;;0.90;0.43;;;30.80;99.90;;;;;;5038032;28;20281;-80
2022/05/18 12:25:18;;;;;;;0.40;0.40;;;30.60;99.90;;;;;;5055766;28;20335;-80
2022/05/18 12:27:44;;;;;;;1.08;0.60;;;29.60;99.90;;;;;;5053520;28;20246;-80
2022/05/18 12:30:14;;;;;;;0.20;0.20;;;30.00;99.90;;;;;;5037995;28;20186;-80
2022/05/18 12:32:41;;;;;;;0.30;0.30;;;30.60;99.90;;;;;;5035374;28;20185;-80
2022/05/18 12:35:23;;;;;;;0.50;0.50;;;30.60;99.90;;;;;;5056878;28;20213;-80
2022/05/18 12:37:58;;;;;;;0.20;0.20;;;31.00;99.90;;;;;;5055236;28;20189;-80
2022/05/18 12:40:58;;;;;;;0.52;0.52;;;31.10;99.90;;;;;;5053988;28;20212;-80
2022/05/18 12:43:27;;;;;;;0.50;0.50;;;31.20;99.90;;;;;;5052274;28;20269;-80
2022/05/18 12:46:16;;;;;;;0.55;0.55;;;31.30;99.90;;;;;;5055328;28;20204;-80
2022/05/18 12:49:04;;;;;;;0.40;0.40;;;31.40;99.90;;;;;;5046420;28;20622;-80
2022/05/18 12:51:39;;;;;;;0.57;0.57;;;31.30;99.90;;;;;;5054733;28;20181;-80
2022/05/18 12:54:22;;;;;;;1.65;1.38;;;31.20;99.90;;;;;;5056617;28;20211;-80
2022/05/18 12:57:12;;;;;;;0.70;0.70;;;31.20;99.90;;;;;;5069917;28;20213;-80
2022/05/18 13:00:01;;;;;;;0.80;0.80;;;31.40;99.90;;;;;;5036201;28;20220;-80
2022/05/18 13:02:42;;;;;;;0.47;0.47;;;31.10;99.90;;;;;;5054732;28;20173;-87
2022/05/18 13:05:26;;;;;;;0.88;0.75;;;31.20;99.90;;;;;;5052163;28;20196;-81
2022/05/18 13:08:17;;;;;;;0.35;0.32;;;31.50;99.90;;;;;;5035928;28;20204;-80
2022/05/18 13:11:07;;;;;;;0.50;0.50;;;31.60;99.90;;;;;;5053587;28;20190;-81
2022/05/18 13:13:57;;;;;;;0.40;0.40;;;31.60;99.90;;;;;;5037192;28;20173;-80
2022/05/18 13:16:38;;;;;;;1.02;0.98;;;31.70;99.90;;;;;;5052450;28;20258;-81
2022/05/18 13:19:13;;;;;;;0.40;0.40;;;31.90;99.90;;;;;;5054882;28;20263;-80
2022/05/18 13:21:44;;;;;;;0.75;0.75;;;32.00;99.90;;;;;;5053612;28;20272;-80
2022/05/18 13:24:37;;;;;;;1.05;0.38;;;32.00;99.90;;;;;;5037677;28;20249;-81
2022/05/18 13:27:13;;;;;;;0.68;0.68;;;31.80;99.90;;;;;;5035988;28;20286;-81